Time;durP1;ratioP1;P1;durP2;ratioP2;P2;SDS_P1;SDS_P2;PMS_P1;PMS_P2;Temp;Humidity;BMP_temperature;BMP_pressure;BME280_temperature;BME280_humidity;BME280_pressure;Samples;Min_cycle;Max_cycle;Signal;HPM_P1;HPM_P2
2022/04/27 16:19:41;;;;;;;;;;;;;;;14.75;54.33;100589.41;5255882;23;19931;-85
2022/04/27 16:24:50;;;;;;;;;;;;;;;14.78;54.05;100589.13;4945779;29;19933;-85
2022/04/27 16:27:15;;;;;;;;;;;;;;;14.84;54.30;100590.34;4926930;29;19930;-85
2022/04/27 16:29:41;;;;;;;;;;;;;;;14.80;53.78;100596.03;4927906;29;19926;-85
2022/04/27 16:32:07;;;;;;;;;;;;;;;14.79;54.73;100598.88;4939100;23;19984;-87
2022/04/27 16:34:32;;;;;;;;;;;;;;;14.84;53.99;100593.03;4922508;29;19930;-92
2022/04/27 16:36:57;;;;;;;;;;;;;;;14.85;54.33;100589.34;4934062;29;20368;-93
2022/04/27 16:39:23;;;;;;;;;;;;;;;14.83;54.42;100592.19;4915415;29;20020;-92
2022/04/27 16:41:48;;;;;;;;;;;;;;;14.82;54.08;100587.81;4938617;29;19930;-92
2022/04/27 16:44:13;;;;;;;;;;;;;;;14.76;54.28;100591.09;4928821;29;19923;-91
2022/04/27 16:46:39;;;;;;;;;;;;;;;14.73;54.40;100591.41;4929927;29;19927;-92
2022/04/27 16:49:05;;;;;;;;;;;;;;;14.71;54.28;100588.88;4951474;29;19922;-91
2022/04/27 16:51:30;;;;;;;;;;;;;;;14.74;53.75;100590.41;4925768;29;20027;-93
2022/04/27 16:53:55;;;;;;;;;;;;;;;14.68;54.00;100594.53;4941817;29;19919;-92
2022/04/27 16:56:20;;;;;;;;;;;;;;;14.68;53.66;100591.00;4941969;29;19941;-92
2022/04/27 16:58:46;;;;;;;;;;;;;;;14.64;53.98;100587.72;4926373;29;19919;-93
2022/04/27 17:01:11;;;;;;;;;;;;;;;14.64;53.68;100592.28;4942560;29;19918;-93
2022/04/27 17:03:37;;;;;;;;;;;;;;;14.63;53.71;100591.41;4932777;29;19926;-91
2022/04/27 17:06:05;;;;;;;;;;;;;;;14.62;53.41;100597.81;4922714;29;19926;-93
2022/04/27 17:08:31;;;;;;;;;;;;;;;14.62;53.71;100602.34;4923044;29;19919;-93
2022/04/27 17:10:56;;;;;;;;;;;;;;;14.60;54.02;100590.88;4903763;29;19926;-93
2022/04/27 17:13:22;;;;;;;;;;;;;;;14.59;54.28;100594.56;4918169;29;19920;-92
2022/04/27 17:15:47;;;;;;;;;;;;;;;14.60;53.75;100596.25;4888325;29;20377;-92
2022/04/27 17:18:13;;;;;;;;;;;;;;;14.60;53.81;100589.03;4914188;29;19947;-92
2022/04/27 17:20:40;;;;;;;;;;;;;;;14.59;53.95;100597.25;4909370;29;22278;-92
2022/04/27 17:23:05;;;;;;;;;;;;;;;14.55;54.63;100594.00;4906758;29;19972;-92
2022/04/27 17:28:14;;;;;;;;;;;;;;;14.55;55.50;100604.78;4915499;29;19966;-90
2022/04/27 17:30:39;;;;;;;;;;;;;;;14.56;55.35;100609.16;4904748;29;19959;-92
2022/04/27 17:33:04;;;;;;;;;;;;;;;14.56;54.50;100606.47;4916139;29;19926;-90
2022/04/27 17:35:32;;;;;;;;;;;;;;;14.56;54.60;100603.78;4919054;29;19920;-92
2022/04/27 17:37:57;;;;;;;;;;;;;;;14.55;54.53;100606.63;4906520;29;19922;-92
2022/04/27 17:40:22;;;;;;;;;;;;;;;14.53;54.63;100608.63;4921236;29;20417;-92
2022/04/27 17:42:49;;;;;;;;;;;;;;;14.52;55.38;100609.59;4922318;29;20242;-91
2022/04/27 17:45:16;;;;;;;;;;;;;;;14.52;54.89;100615.84;4912377;29;19923;-92
2022/04/27 17:47:41;;;;;;;;;;;;;;;14.54;55.69;100613.84;4921826;29;20353;-92
2022/04/27 17:50:07;;;;;;;;;;;;;;;14.53;55.44;100620.22;4922374;29;19919;-92
2022/04/27 17:52:33;;;;;;;;;;;;;;;14.52;55.40;100615.84;4918489;29;19974;-92
2022/04/27 17:54:59;;;;;;;;;;;;;;;14.51;55.44;100619.53;4921113;29;19919;-92
2022/04/27 17:57:24;;;;;;;;;;;;;;;14.50;55.42;100620.53;4921869;29;19919;-93
2022/04/27 17:59:49;;;;;;;;;;;;;;;14.50;55.06;100628.59;4915482;29;19966;-93
2022/04/27 18:02:14;;;;;;;;;;;;;;;14.50;54.75;100633.97;4903915;29;19929;-92
2022/04/27 18:04:39;;;;;;;;;;;;;;;14.51;55.86;100626.75;4914280;29;19941;-92
2022/04/27 18:07:06;;;;;;;;;;;;;;;14.49;55.74;100633.13;4913082;29;20005;-90
2022/04/27 18:09:31;;;;;;;;;;;;;;;14.51;55.48;100632.97;4921798;29;20346;-92
2022/04/27 18:12:04;;;;;;;;;;;;;;;14.48;55.13;100642.19;4916703;29;19919;-93
2022/04/27 18:14:29;;;;;;;;;;;;;;;14.48;55.37;100641.34;4911476;29;19966;-93
2022/04/27 18:16:54;;;;;;;;;;;;;;;14.46;55.31;100649.56;4903547;29;19927;-92
2022/04/27 18:19:20;;;;;;;;;;;;;;;14.46;55.07;100646.88;4911522;29;19919;-94
2022/04/27 18:21:45;;;;;;;;;;;;;;;14.43;54.79;100649.00;4913200;29;20329;-92
2022/04/27 18:24:11;;;;;;;;;;;;;;;14.44;54.98;100651.56;4904341;29;20431;-91
2022/04/27 18:26:36;;;;;;;;;;;;;;;14.43;54.81;100654.41;4920874;29;20328;-92
2022/04/27 18:29:01;;;;;;;;;;;;;;;14.45;55.54;100655.94;4921316;29;20360;-92
2022/04/27 18:31:28;;;;;;;;;;;;;;;14.44;55.27;100658.78;4920993;29;19919;-91
2022/04/27 18:33:53;;;;;;;;;;;;;;;14.43;55.52;100659.78;4921072;29;19923;-93
2022/04/27 18:36:18;;;;;;;;;;;;;;;14.41;55.02;100665.28;4904905;29;19978;-92
2022/04/27 18:38:44;;;;;;;;;;;;;;;14.42;55.33;100664.31;4902233;29;20344;-93
2022/04/27 18:41:09;;;;;;;;;;;;;;;14.41;55.49;100665.28;4901862;29;20397;-92
2022/04/27 18:51:49;;;;;;;;;;;;;;;14.37;55.61;100674.63;4923831;29;20012;-92
2022/04/27 18:54:14;;;;;;;;;;;;;;;14.35;55.91;100675.78;4921801;29;19919;-91
2022/04/27 18:56:39;;;;;;;;;;;;;;;14.36;56.30;100685.53;4919106;29;19986;-87
2022/04/27 18:59:05;;;;;;;;;;;;;;;14.35;55.88;100683.84;4907325;29;20305;-87
2022/04/27 19:01:30;;;;;;;;;;;;;;;14.32;56.28;100681.44;4916824;29;20395;-89
2022/04/27 19:03:55;;;;;;;;;;;;;;;14.34;56.33;100684.84;4912702;29;19930;-89
2022/04/27 19:06:20;;;;;;;;;;;;;;;14.31;56.54;100693.19;4907401;29;19934;-89
2022/04/27 19:08:46;;;;;;;;;;;;;;;14.27;56.04;100692.63;4908127;29;19922;-88
2022/04/27 19:11:11;;;;;;;;;;;;;;;14.24;56.02;100690.25;4930265;29;19934;-89
2022/04/27 19:13:39;;;;;;;;;;;;;;;14.24;56.15;100690.25;4910350;29;19958;-88
2022/04/27 19:16:05;;;;;;;;;;;;;;;14.22;56.43;100694.91;4900906;29;20053;-88
2022/04/27 19:18:30;;;;;;;;;;;;;;;14.18;56.52;100691.63;4908847;29;20017;-89
2022/04/27 19:20:56;;;;;;;;;;;;;;;14.12;56.88;100692.19;4901331;29;19931;-89
2022/04/27 19:23:21;;;;;;;;;;;;;;;14.14;56.98;100694.75;4900310;29;19923;-89
2022/04/27 19:25:46;;;;;;;;;;;;;;;14.16;56.95;100704.38;4900408;29;19929;-87
2022/04/27 19:28:12;;;;;;;;;;;;;;;14.13;56.64;100704.66;4909092;29;19922;-89
2022/04/27 19:30:41;;;;;;;;;;;;;;;14.15;56.72;100708.06;4910235;29;19927;-89
2022/04/27 19:33:06;;;;;;;;;;;;;;;14.12;57.28;100705.66;4909669;29;19927;-89
2022/04/27 19:35:31;;;;;;;;;;;;;;;14.08;57.47;100711.47;4900679;29;19934;-88
2022/04/27 19:37:57;;;;;;;;;;;;;;;14.08;56.85;100712.31;4904066;29;19930;-89
2022/04/27 19:40:22;;;;;;;;;;;;;;;14.06;57.10;100711.59;4909622;29;19933;-88
2022/04/27 19:42:47;;;;;;;;;;;;;;;14.09;56.77;100715.84;4908334;29;19927;-88
2022/04/27 19:45:12;;;;;;;;;;;;;;;14.01;57.00;100713.88;4910858;29;19927;-88
2022/04/27 19:47:38;;;;;;;;;;;;;;;14.00;57.03;100724.78;4910768;29;19918;-88
2022/04/27 19:50:04;;;;;;;;;;;;;;;14.02;56.90;100722.78;4911000;29;20169;-89
2022/04/27 19:55:13;;;;;;;;;;;;;;;14.02;56.87;100723.63;4904058;29;20275;-88
2022/04/27 19:57:38;;;;;;;;;;;;;;;13.98;56.80;100726.75;4909699;29;20373;-89
2022/04/27 20:00:05;;;;;;;;;;;;;;;14.00;57.28;100719.38;4901961;29;19922;-88
2022/04/27 20:02:33;;;;;;;;;;;;;;;13.98;56.89;100716.84;4899568;29;19919;-89
2022/04/27 20:04:58;;;;;;;;;;;;;;;13.91;56.78;100725.63;4910265;29;20428;-88
2022/04/27 20:07:23;;;;;;;;;;;;;;;13.90;57.26;100727.47;4909450;29;19922;-89
2022/04/27 20:09:48;;;;;;;;;;;;;;;13.88;56.67;100734.81;4901193;29;19930;-88
2022/04/27 20:12:14;;;;;;;;;;;;;;;13.88;57.09;100739.34;4909298;29;19923;-88
2022/04/27 20:14:40;;;;;;;;;;;;;;;13.89;56.87;100731.13;4900494;29;20399;-89
2022/04/27 20:17:05;;;;;;;;;;;;;;;13.90;56.92;100748.13;4908792;29;20283;-89
2022/04/27 20:19:30;;;;;;;;;;;;;;;13.90;57.67;100740.91;4900637;29;20009;-89
2022/04/27 20:21:56;;;;;;;;;;;;;;;13.89;57.53;100744.59;4900295;29;19923;-88
2022/04/27 20:24:22;;;;;;;;;;;;;;;13.88;57.61;100745.56;4909086;29;19933;-89
2022/04/27 20:26:47;;;;;;;;;;;;;;;13.84;57.89;100744.16;4903421;29;20195;-88
2022/04/27 20:29:12;;;;;;;;;;;;;;;13.82;58.06;100746.13;4901096;29;20352;-89
2022/04/27 20:31:37;;;;;;;;;;;;;;;13.82;57.54;100751.50;4901458;29;20353;-88
2022/04/27 20:34:02;;;;;;;;;;;;;;;13.77;57.33;100751.06;4908515;29;20353;-88
2022/04/27 20:36:28;;;;;;;;;;;;;;;13.76;57.57;100749.38;4908729;29;19954;-88
2022/04/27 20:38:55;;;;;;;;;;;;;;;13.77;57.14;100753.75;4908715;29;19923;-88
2022/04/27 20:41:20;;;;;;;;;;;;;;;13.77;57.82;100751.06;4908661;29;19919;-89
2022/04/27 20:43:45;;;;;;;;;;;;;;;13.74;57.46;100756.72;4908202;29;19922;-88
2022/04/27 20:46:11;;;;;;;;;;;;;;;13.74;57.70;100746.84;4902029;29;19921;-89
2022/04/27 20:48:36;;;;;;;;;;;;;;;13.77;57.85;100748.38;4913025;29;19929;-88
2022/04/27 20:51:02;;;;;;;;;;;;;;;13.72;57.69;100759.56;4912963;29;19990;-88
2022/04/27 20:53:27;;;;;;;;;;;;;;;13.71;57.94;100757.81;4912691;29;20238;-88
2022/04/27 20:55:53;;;;;;;;;;;;;;;13.73;57.94;100758.56;4903925;29;20336;-87
2022/04/27 20:58:18;;;;;;;;;;;;;;;13.73;57.94;100765.78;4902274;29;20206;-88
2022/04/27 21:00:43;;;;;;;;;;;;;;;13.72;57.79;100766.78;4912912;29;20423;-88
2022/04/27 21:03:08;;;;;;;;;;;;;;;13.68;58.48;100768.84;4911291;29;19973;-89
2022/04/27 21:05:33;;;;;;;;;;;;;;;13.61;58.24;100765.03;4902315;29;19931;-89
2022/04/27 21:08:01;;;;;;;;;;;;;;;13.61;58.37;100770.41;4904563;29;20451;-89
2022/04/27 21:10:26;;;;;;;;;;;;;;;13.57;58.80;100768.13;4911626;29;19946;-88
2022/04/27 21:12:51;;;;;;;;;;;;;;;13.59;58.69;100775.06;4902729;29;19923;-87
2022/04/27 21:15:17;;;;;;;;;;;;;;;13.56;58.67;100769.97;4911467;29;20010;-88
2022/04/27 21:17:42;;;;;;;;;;;;;;;13.58;58.58;100773.38;4903559;29;19962;-88
2022/04/27 21:20:07;;;;;;;;;;;;;;;13.60;58.92;100773.22;4902784;29;19923;-89
2022/04/27 21:22:32;;;;;;;;;;;;;;;13.57;58.28;100777.03;4906315;29;19930;-87
2022/04/27 21:24:58;;;;;;;;;;;;;;;13.55;58.70;100779.00;4905070;29;19926;-88
2022/04/27 21:27:23;;;;;;;;;;;;;;;13.55;58.35;100782.56;4904598;29;19977;-88
2022/04/27 21:29:49;;;;;;;;;;;;;;;13.53;58.76;100786.34;4912284;29;19923;-88
2022/04/27 21:32:14;;;;;;;;;;;;;;;13.51;58.98;100786.50;4889243;29;19927;-89
2022/04/27 21:34:40;;;;;;;;;;;;;;;13.50;58.73;100787.47;4912935;29;19930;-87
2022/04/27 21:37:05;;;;;;;;;;;;;;;13.48;58.87;100800.22;4911668;29;19973;-89
2022/04/27 21:39:31;;;;;;;;;;;;;;;13.40;58.60;100799.19;4904608;29;19927;-88
2022/04/27 21:41:56;;;;;;;;;;;;;;;13.41;58.64;100799.06;4904474;29;20188;-89
2022/04/27 21:44:21;;;;;;;;;;;;;;;13.38;59.41;100802.00;4912365;29;19926;-89
2022/04/27 21:46:47;;;;;;;;;;;;;;;13.34;58.80;100807.78;4906118;29;19922;-88
2022/04/27 21:49:12;;;;;;;;;;;;;;;13.35;58.81;100801.44;4912530;29;19923;-89
2022/04/27 21:51:37;;;;;;;;;;;;;;;13.30;59.10;100807.22;4905538;29;19923;-89
2022/04/27 21:54:03;;;;;;;;;;;;;;;13.17;59.39;100801.19;4929900;29;19923;-88
2022/04/27 21:56:29;;;;;;;;;;;;;;;13.12;59.79;100808.75;4906394;29;20184;-88
2022/04/27 21:58:57;;;;;;;;;;;;;;;13.21;59.26;100808.84;4911388;29;19922;-88
2022/04/27 22:01:27;;;;;;;;;;;;;;;13.28;59.17;100816.38;4912670;29;19922;-89
2022/04/27 22:06:36;;;;;;;;;;;;;;;13.23;59.41;100822.97;4907473;29;19930;-88
2022/04/27 22:09:03;;;;;;;;;;;;;;;13.25;59.56;100817.50;4904312;29;19923;-88
2022/04/27 22:11:28;;;;;;;;;;;;;;;13.23;59.16;100816.75;4911693;29;19923;-88
2022/04/27 22:13:55;;;;;;;;;;;;;;;13.21;58.77;100819.56;4904950;29;20355;-88
2022/04/27 22:16:20;;;;;;;;;;;;;;;13.15;59.35;100825.47;4911360;29;19923;-88
2022/04/27 22:18:45;;;;;;;;;;;;;;;13.07;59.18;100827.97;4906533;29;19918;-88
2022/04/27 22:21:11;;;;;;;;;;;;;;;13.09;59.61;100820.63;4904259;29;19919;-88
2022/04/27 22:23:37;;;;;;;;;;;;;;;13.12;59.77;100824.88;4902757;29;19929;-88
2022/04/27 22:26:02;;;;;;;;;;;;;;;13.13;59.32;100829.25;4906596;29;20280;-88
2022/04/27 22:28:27;;;;;;;;;;;;;;;13.12;59.32;100827.56;4902238;29;19934;-89
2022/04/27 22:30:52;;;;;;;;;;;;;;;13.08;59.15;100828.81;4911278;29;20005;-88
2022/04/27 22:33:19;;;;;;;;;;;;;;;13.06;59.42;100837.00;4902438;29;19933;-88
2022/04/27 22:35:44;;;;;;;;;;;;;;;12.99;59.52;100834.97;4911660;29;20009;-88
2022/04/27 22:38:09;;;;;;;;;;;;;;;13.00;59.76;100840.22;4884685;29;20444;-89
2022/04/27 22:40:37;;;;;;;;;;;;;;;13.00;59.77;100842.03;4911004;29;19933;-88
2022/04/27 22:43:02;;;;;;;;;;;;;;;13.00;59.55;100840.22;4911582;29;19918;-87
2022/04/27 22:45:28;;;;;;;;;;;;;;;13.00;59.11;100847.41;4928046;29;20373;-88
2022/04/27 22:47:53;;;;;;;;;;;;;;;12.99;59.17;100851.09;4905273;29;19923;-88
2022/04/27 22:50:18;;;;;;;;;;;;;;;12.98;58.81;100847.56;4911308;29;20064;-88
2022/04/27 22:52:43;;;;;;;;;;;;;;;12.95;58.99;100850.50;4911351;29;20700;-89
2022/04/27 22:55:08;;;;;;;;;;;;;;;12.93;58.87;100849.78;4901718;29;20295;-88
2022/04/27 22:57:34;;;;;;;;;;;;;;;12.91;58.82;100857.97;4910292;29;19923;-88
2022/04/27 22:59:59;;;;;;;;;;;;;;;12.93;59.41;100855.16;4895817;29;19952;-88
2022/04/27 23:02:25;;;;;;;;;;;;;;;12.90;59.16;100858.09;4902371;29;20223;-88
2022/04/27 23:04:50;;;;;;;;;;;;;;;12.85;58.86;100861.16;4902189;29;20404;-88
2022/04/27 23:07:15;;;;;;;;;;;;;;;12.89;59.64;100859.06;4910168;29;19934;-89
2022/04/27 23:12:24;;;;;;;;;;;;;;;12.77;59.35;100852.03;4913286;29;19930;-88
2022/04/27 23:14:49;;;;;;;;;;;;;;;12.82;59.74;100857.91;4905554;29;19923;-88
2022/04/27 23:17:15;;;;;;;;;;;;;;;12.81;59.40;100859.72;4904792;29;19926;-88
2022/04/27 23:19:40;;;;;;;;;;;;;;;12.74;59.80;100863.88;4910682;29;20336;-88
2022/04/27 23:22:06;;;;;;;;;;;;;;;12.66;59.44;100857.47;4901037;29;19970;-88
2022/04/27 23:24:31;;;;;;;;;;;;;;;12.69;59.96;100860.75;4886163;29;19923;-88
2022/04/27 23:26:56;;;;;;;;;;;;;;;12.75;59.70;100857.53;4904229;29;19923;-89
2022/04/27 23:29:22;;;;;;;;;;;;;;;12.74;59.88;100854.97;4903210;29;19950;-89
2022/04/27 23:31:47;;;;;;;;;;;;;;;12.66;59.45;100855.63;4901180;29;19923;-88
2022/04/27 23:34:12;;;;;;;;;;;;;;;12.63;59.91;100858.56;4902649;29;19927;-89
2022/04/27 23:36:38;;;;;;;;;;;;;;;12.63;59.77;100858.56;4911485;29;19922;-89
2022/04/27 23:39:03;;;;;;;;;;;;;;;12.62;59.79;100864.94;4911960;29;20292;-89
2022/04/27 23:41:28;;;;;;;;;;;;;;;12.61;59.51;100863.22;4910477;29;19922;-88
2022/04/27 23:43:53;;;;;;;;;;;;;;;12.63;59.82;100868.47;4910113;29;19918;-89
2022/04/27 23:46:18;;;;;;;;;;;;;;;12.58;59.83;100860.78;4902392;29;19946;-88
2022/04/27 23:48:47;;;;;;;;;;;;;;;12.60;59.99;100859.69;4911680;29;19927;-90
2022/04/27 23:51:12;;;;;;;;;;;;;;;12.57;59.51;100857.25;4904162;29;19919;-89
2022/04/27 23:53:38;;;;;;;;;;;;;;;12.55;59.82;100855.69;4902636;29;19926;-89
2022/04/27 23:56:03;;;;;;;;;;;;;;;12.55;59.75;100855.69;4910125;29;19923;-89
2022/04/27 23:58:29;;;;;;;;;;;;;;;12.49;59.80;100851.69;4909844;29;20282;-89
